Time;durP1;ratioP1;P1;durP2;ratioP2;P2;SDS_P1;SDS_P2;PMS_P1;PMS_P2;Temp;Humidity;BMP_temperature;BMP_pressure;BME280_temperature;BME280_humidity;BME280_pressure;Samples;Min_cycle;Max_cycle;Signal;HPM_P1;HPM_P2
2022/07/20 00:00:47;;;;;;;;;;;25.40;99.90;;;;;;5053881;28;20284;-71
2022/07/20 00:03:12;;;;;;;;;;;25.50;99.90;;;;;;5053723;28;19908;-68
2022/07/20 00:05:39;;;;;;;;;;;25.50;99.90;;;;;;5053437;28;19916;-69
2022/07/20 00:08:05;;;;;;;;;;;25.60;99.90;;;;;;5053682;28;19909;-69
2022/07/20 00:13:15;;;;;;;;;;;25.70;99.90;;;;;;5052766;28;19916;-69
2022/07/20 00:15:42;;;;;;;;;;;25.70;99.90;;;;;;5053337;28;19913;-69
2022/07/20 00:18:08;;;;;;;;;;;25.70;99.90;;;;;;5053323;28;20082;-69
2022/07/20 00:20:34;;;;;;;;;;;25.90;99.90;;;;;;5053472;28;19954;-69
2022/07/20 00:22:59;;;;;;;;;;;26.10;99.90;;;;;;5053389;28;19923;-70
2022/07/20 00:25:26;;;;;;;;;;;26.30;99.90;;;;;;5053313;28;19917;-69
2022/07/20 00:27:51;;;;;;;;;;;26.40;99.70;;;;;;5053524;28;19916;-71
2022/07/20 00:30:17;;;;;;;;;;;26.50;99.80;;;;;;5053870;28;19912;-70
2022/07/20 00:32:43;;;;;;;;;;;26.40;99.70;;;;;;5053163;28;19913;-68
2022/07/20 00:35:11;;;;;;;;;;;26.50;99.80;;;;;;5051336;28;19962;-68
2022/07/20 00:37:37;;;;;;;;;;;26.50;99.60;;;;;;5053030;28;20315;-69
2022/07/20 00:40:03;;;;;;;;;;;26.50;99.60;;;;;;5053159;28;19999;-70
2022/07/20 00:42:29;;;;;;;;;;;26.60;99.30;;;;;;5053301;28;19915;-68
2022/07/20 00:44:55;;;;;;;;;;;26.60;99.40;;;;;;5052704;28;20291;-69
2022/07/20 00:47:20;;;;;;;;;;;26.70;99.10;;;;;;5052566;28;19920;-70
2022/07/20 00:49:46;;;;;;;;;;;26.70;99.00;;;;;;5053396;28;20018;-68
2022/07/20 00:52:11;;;;;;;;;;;26.70;99.30;;;;;;5053968;28;19991;-68
2022/07/20 00:54:38;;;;;;;;;;;26.70;98.80;;;;;;5052966;28;20090;-69
2022/07/20 00:57:04;;;;;;;;;;;26.70;99.20;;;;;;5053183;28;19909;-69
2022/07/20 00:59:29;;;;;;;;;;;26.70;99.30;;;;;;5053319;28;19909;-69
2022/07/20 01:01:55;;;;;;;;;;;26.60;99.60;;;;;;5052908;28;19974;-69
2022/07/20 01:04:21;;;;;;;;;;;26.50;99.60;;;;;;5052434;28;19970;-70
2022/07/20 01:06:47;;;;;;;;;;;26.50;99.60;;;;;;5052908;28;20357;-69
2022/07/20 01:09:13;;;;;;;;;;;26.50;99.50;;;;;;5052677;28;19988;-71
2022/07/20 01:11:38;;;;;;;;;;;26.50;99.40;;;;;;5052647;28;19936;-69
2022/07/20 01:14:05;;;;;;;;;;;26.50;99.40;;;;;;5052973;28;19917;-69
2022/07/20 01:16:30;;;;;;;;;;;26.40;99.50;;;;;;5052204;28;19955;-68
2022/07/20 01:18:56;;;;;;;;;;;26.50;99.70;;;;;;5052769;28;20334;-69
2022/07/20 01:21:22;;;;;;;;;;;26.50;99.60;;;;;;5052975;28;19923;-70
2022/07/20 01:23:47;;;;;;;;;;;26.30;99.80;;;;;;5051380;28;19916;-69
2022/07/20 01:26:15;;;;;;;;;;;26.20;99.80;;;;;;5052334;28;20291;-69
2022/07/20 01:28:41;;;;;;;;;;;26.10;99.90;;;;;;5052405;28;20008;-69
2022/07/20 01:31:06;;;;;;;;;;;26.10;99.90;;;;;;5052504;28;19919;-69
2022/07/20 01:33:32;;;;;;;;;;;26.00;99.90;;;;;;5052283;28;19917;-72
2022/07/20 01:35:57;;;;;;;;;;;26.10;99.80;;;;;;5052123;28;19913;-69
2022/07/20 01:38:23;;;;;;;;;;;26.10;99.90;;;;;;5052408;28;19913;-69
2022/07/20 01:40:49;;;;;;;;;;;26.10;99.80;;;;;;5052407;28;20375;-70
2022/07/20 01:43:14;;;;;;;;;;;26.20;99.80;;;;;;5052341;28;19915;-70
2022/07/20 01:45:40;;;;;;;;;;;26.20;99.60;;;;;;5052481;28;19909;-69
2022/07/20 01:48:05;;;;;;;;;;;26.20;99.30;;;;;;5054379;28;19909;-69
2022/07/20 01:50:31;;;;;;;;;;;26.20;99.30;;;;;;5055348;28;19909;-70
2022/07/20 01:52:56;;;;;;;;;;;26.30;99.30;;;;;;5063340;28;19909;-69
2022/07/20 01:55:22;;;;;;;;;;;26.40;99.00;;;;;;5059741;28;20015;-68
2022/07/20 01:57:48;;;;;;;;;;;26.30;99.10;;;;;;5056911;28;20007;-69
2022/07/20 02:00:13;;;;;;;;;;;26.40;99.00;;;;;;5054447;28;20103;-70
2022/07/20 02:02:40;;;;;;;;;;;26.40;98.70;;;;;;5054630;28;19909;-69
2022/07/20 02:05:06;;;;;;;;;;;26.40;98.60;;;;;;5053864;28;19916;-71
2022/07/20 02:07:32;;;;;;;;;;;26.40;98.50;;;;;;5055440;28;19941;-70
2022/07/20 02:09:57;;;;;;;;;;;26.40;98.50;;;;;;5060614;28;19935;-70
2022/07/20 02:12:23;;;;;;;;;;;26.40;98.30;;;;;;5062076;28;19947;-71
2022/07/20 02:14:48;;;;;;;;;;;26.30;98.50;;;;;;5053322;28;19913;-69
2022/07/20 02:17:14;;;;;;;;;;;26.40;98.60;;;;;;5053851;28;19913;-71
2022/07/20 02:19:39;;;;;;;;;;;26.30;98.50;;;;;;5053943;28;20464;-68
2022/07/20 02:22:05;;;;;;;;;;;26.30;98.70;;;;;;5053374;28;19954;-70
2022/07/20 02:24:31;;;;;;;;;;;26.30;98.70;;;;;;5053356;28;20024;-69
2022/07/20 02:26:56;;;;;;;;;;;26.20;98.70;;;;;;5054264;28;19909;-68
2022/07/20 02:29:22;;;;;;;;;;;26.20;98.90;;;;;;5054653;28;20264;-69
2022/07/20 02:31:47;;;;;;;;;;;26.20;98.90;;;;;;5053709;28;20004;-70
2022/07/20 02:34:13;;;;;;;;;;;26.20;98.80;;;;;;5053809;28;19952;-71
2022/07/20 02:36:39;;;;;;;;;;;26.20;98.90;;;;;;5052912;28;20399;-69
2022/07/20 02:39:04;;;;;;;;;;;26.10;98.90;;;;;;5053564;28;20003;-69
2022/07/20 02:41:32;;;;;;;;;;;26.10;99.00;;;;;;5053381;28;19931;-70
2022/07/20 02:43:58;;;;;;;;;;;26.10;99.10;;;;;;5053402;28;19912;-70
2022/07/20 02:46:24;;;;;;;;;;;26.10;99.00;;;;;;5053252;28;19972;-69
2022/07/20 02:48:50;;;;;;;;;;;26.20;99.00;;;;;;5053762;28;19954;-69
2022/07/20 02:51:15;;;;;;;;;;;26.20;99.00;;;;;;5053610;28;19942;-69
2022/07/20 02:53:41;;;;;;;;;;;26.10;99.10;;;;;;5053288;28;19920;-70
2022/07/20 02:56:06;;;;;;;;;;;26.10;99.00;;;;;;5053724;28;20077;-69
2022/07/20 02:58:32;;;;;;;;;;;26.10;99.50;;;;;;5053574;28;20291;-70
2022/07/20 03:00:58;;;;;;;;;;;26.00;99.10;;;;;;5053516;28;19917;-71
2022/07/20 03:03:23;;;;;;;;;;;26.10;99.20;;;;;;5053847;28;20018;-70
2022/07/20 03:05:49;;;;;;;;;;;26.00;99.20;;;;;;5053106;28;19909;-69
2022/07/20 03:08:14;;;;;;;;;;;25.90;99.10;;;;;;5053023;28;19995;-70
2022/07/20 03:10:40;;;;;;;;;;;25.90;99.20;;;;;;5052549;28;19962;-69
2022/07/20 03:13:06;;;;;;;;;;;25.90;99.30;;;;;;5052723;28;19928;-69
2022/07/20 03:15:31;;;;;;;;;;;25.80;99.30;;;;;;5053348;28;19920;-71
2022/07/20 03:17:57;;;;;;;;;;;25.80;99.20;;;;;;5051058;28;19913;-69
2022/07/20 03:20:33;;;;;;;;;;;25.80;99.30;;;;;;5050627;28;19915;-68
2022/07/20 03:22:58;;;;;;;;;;;25.80;99.30;;;;;;5050776;28;19920;-69
2022/07/20 03:25:24;;;;;;;;;;;25.80;99.30;;;;;;5050360;28;19917;-69
2022/07/20 03:27:54;;;;;;;;;;;25.80;99.20;;;;;;5050359;28;19909;-68
2022/07/20 03:30:19;;;;;;;;;;;25.80;99.30;;;;;;5050078;28;19936;-70
2022/07/20 03:32:45;;;;;;;;;;;25.80;99.20;;;;;;5050300;28;20364;-70
2022/07/20 03:35:11;;;;;;;;;;;25.80;99.10;;;;;;5049925;28;19912;-69
2022/07/20 03:37:36;;;;;;;;;;;25.80;99.10;;;;;;5050409;28;19935;-69
2022/07/20 03:40:04;;;;;;;;;;;25.80;99.20;;;;;;5050053;28;20003;-69
2022/07/20 03:42:30;;;;;;;;;;;25.70;99.30;;;;;;5050276;28;20265;-69
2022/07/20 03:44:55;;;;;;;;;;;25.70;99.40;;;;;;5049854;28;19908;-69
2022/07/20 03:47:21;;;;;;;;;;;25.60;99.40;;;;;;5050052;28;19909;-69
2022/07/20 03:49:46;;;;;;;;;;;25.60;99.40;;;;;;5050054;28;19952;-70
2022/07/20 03:52:15;;;;;;;;;;;25.60;99.40;;;;;;5049862;28;19920;-69
2022/07/20 03:54:41;;;;;;;;;;;25.70;99.40;;;;;;5049528;28;20320;-68
2022/07/20 03:57:06;;;;;;;;;;;25.70;99.40;;;;;;5049892;28;19931;-68
2022/07/20 03:59:33;;;;;;;;;;;25.70;99.40;;;;;;5049993;28;19909;-70
2022/07/20 04:01:59;;;;;;;;;;;25.70;99.30;;;;;;5049683;28;19912;-69
2022/07/20 04:04:24;;;;;;;;;;;25.70;99.20;;;;;;5049286;28;20400;-70
2022/07/20 04:06:50;;;;;;;;;;;25.70;99.10;;;;;;5050041;28;19999;-70
2022/07/20 04:09:43;;;;;;;;;;;25.80;99.20;;;;;;5049568;28;20343;-68
2022/07/20 04:12:02;;;;;;;;;;;25.80;99.50;;;;;;5049506;28;20282;-69
2022/07/20 04:14:27;;;;;;;;;;;25.80;99.10;;;;;;5049896;28;20009;-68
2022/07/20 04:16:53;;;;;;;;;;;25.80;99.10;;;;;;5050185;28;19944;-70
2022/07/20 04:19:18;;;;;;;;;;;25.70;99.20;;;;;;5049903;28;19967;-70
2022/07/20 04:21:44;;;;;;;;;;;25.70;99.40;;;;;;5051919;28;19928;-67
2022/07/20 04:24:10;;;;;;;;;;;25.70;99.50;;;;;;5055092;28;19916;-68
2022/07/20 04:26:36;;;;;;;;;;;25.70;99.70;;;;;;5053171;28;19952;-69
2022/07/20 04:29:02;;;;;;;;;;;25.60;99.60;;;;;;5052130;28;20418;-70
2022/07/20 04:31:27;;;;;;;;;;;25.60;99.60;;;;;;5053443;28;19928;-67
2022/07/20 04:33:53;;;;;;;;;;;25.60;99.50;;;;;;5053420;28;19913;-71
2022/07/20 04:36:18;;;;;;;;;;;25.60;99.70;;;;;;5053564;28;19909;-69
2022/07/20 04:38:44;;;;;;;;;;;25.60;99.90;;;;;;5053562;28;19909;-69
2022/07/20 04:41:10;;;;;;;;;;;25.60;99.70;;;;;;5053227;28;19916;-70
2022/07/20 04:43:35;;;;;;;;;;;25.70;99.70;;;;;;5053437;28;19908;-70
2022/07/20 04:46:01;;;;;;;;;;;25.70;99.70;;;;;;5053107;28;20348;-68
2022/07/20 04:48:26;;;;;;;;;;;25.80;99.60;;;;;;5053771;28;20093;-68
2022/07/20 04:50:52;;;;;;;;;;;25.80;99.50;;;;;;5053509;28;20232;-69
2022/07/20 04:53:17;;;;;;;;;;;25.90;99.40;;;;;;5053433;28;19920;-70
2022/07/20 04:55:43;;;;;;;;;;;25.90;99.40;;;;;;5052524;28;19908;-69
2022/07/20 04:58:09;;;;;;;;;;;26.00;99.30;;;;;;5052887;28;19912;-69
2022/07/20 05:00:34;;;;;;;;;;;26.00;99.40;;;;;;5053293;28;19909;-71
2022/07/20 05:03:00;;;;;;;;;;;26.00;99.60;;;;;;5053598;28;19908;-69
2022/07/20 05:05:25;;;;;;;;;;;26.00;99.60;;;;;;5051724;28;20368;-69
2022/07/20 05:07:51;;;;;;;;;;;26.00;99.80;;;;;;5052660;28;20000;-70
2022/07/20 05:10:16;;;;;;;;;;;26.20;99.70;;;;;;5052604;28;19909;-66
2022/07/20 05:12:42;;;;;;;;;;;26.20;99.90;;;;;;5053187;28;19913;-69
2022/07/20 05:15:08;;;;;;;;;;;26.20;99.40;;;;;;5052383;28;19920;-70
2022/07/20 05:17:33;;;;;;;;;;;26.40;99.50;;;;;;5052690;28;20359;-70
2022/07/20 05:19:59;;;;;;;;;;;26.40;99.80;;;;;;5053175;28;19909;-69
2022/07/20 05:22:24;;;;;;;;;;;26.50;99.50;;;;;;5052328;28;19915;-70
2022/07/20 05:24:50;;;;;;;;;;;26.60;99.40;;;;;;5052153;28;19917;-70
2022/07/20 05:27:16;;;;;;;;;;;26.60;99.40;;;;;;5050824;28;19925;-71
2022/07/20 05:29:41;;;;;;;;;;;26.70;99.40;;;;;;5052584;28;20395;-70
2022/07/20 05:32:08;;;;;;;;;;;26.80;99.20;;;;;;5053198;28;20383;-70
2022/07/20 05:34:33;;;;;;;;;;;26.80;99.20;;;;;;5051775;28;19975;-68
2022/07/20 05:36:59;;;;;;;;;;;26.90;99.10;;;;;;5052168;28;19909;-70
2022/07/20 05:39:24;;;;;;;;;;;27.00;98.90;;;;;;5051837;28;19909;-70
2022/07/20 05:41:50;;;;;;;;;;;27.00;99.00;;;;;;5052150;28;19963;-68
2022/07/20 05:44:15;;;;;;;;;;;27.00;98.90;;;;;;5051773;28;19991;-69
2022/07/20 05:46:41;;;;;;;;;;;27.20;98.90;;;;;;5051899;28;19909;-70
2022/07/20 05:49:07;;;;;;;;;;;27.30;98.80;;;;;;5051746;28;20372;-71
2022/07/20 05:51:34;;;;;;;;;;;27.30;98.80;;;;;;5051777;28;20344;-70
2022/07/20 05:53:59;;;;;;;;;;;27.40;98.70;;;;;;5051484;28;19967;-71
2022/07/20 05:56:25;;;;;;;;;;;27.50;98.70;;;;;;5051670;28;19909;-69
2022/07/20 05:58:50;;;;;;;;;;;27.60;98.50;;;;;;5052519;28;19979;-71
2022/07/20 06:01:16;;;;;;;;;;;27.60;98.80;;;;;;5053295;28;19909;-71
2022/07/20 06:03:42;;;;;;;;;;;27.60;98.80;;;;;;5052431;28;19988;-72
2022/07/20 06:06:08;;;;;;;;;;;27.60;98.70;;;;;;5050303;28;19933;-72
2022/07/20 06:08:34;;;;;;;;;;;27.70;99.00;;;;;;5051478;28;19917;-71
2022/07/20 06:11:03;;;;;;;;;;;27.80;98.60;;;;;;5051883;28;19920;-71
2022/07/20 06:13:28;;;;;;;;;;;27.90;98.30;;;;;;5051540;28;19959;-71
2022/07/20 06:15:54;;;;;;;;;;;28.00;98.40;;;;;;5052779;28;19912;-71
2022/07/20 06:18:22;;;;;;;;;;;28.00;98.00;;;;;;5052571;28;20007;-72
2022/07/20 06:20:48;;;;;;;;;;;28.00;98.10;;;;;;5051709;28;20315;-72
2022/07/20 06:23:13;;;;;;;;;;;28.10;97.70;;;;;;5051310;28;19936;-72
2022/07/20 06:25:39;;;;;;;;;;;28.10;97.80;;;;;;5051182;28;20008;-72
2022/07/20 06:28:04;;;;;;;;;;;28.20;97.50;;;;;;5051173;28;19916;-71
2022/07/20 06:30:30;;;;;;;;;;;28.20;97.40;;;;;;5051373;28;20342;-72
2022/07/20 06:32:56;;;;;;;;;;;28.40;97.10;;;;;;5051293;28;20008;-72
2022/07/20 06:35:22;;;;;;;;;;;28.50;96.90;;;;;;5051429;28;19917;-70
2022/07/20 06:37:48;;;;;;;;;;;28.40;96.80;;;;;;5050867;28;19936;-71
2022/07/20 06:40:13;;;;;;;;;;;28.60;96.90;;;;;;5051272;28;19948;-72
2022/07/20 06:42:39;;;;;;;;;;;28.70;96.70;;;;;;5051429;28;20436;-72
2022/07/20 06:45:05;;;;;;;;;;;28.70;96.60;;;;;;5050189;28;19912;-72
2022/07/20 06:47:30;;;;;;;;;;;28.70;96.40;;;;;;5050815;28;20009;-71
2022/07/20 06:49:56;;;;;;;;;;;28.90;96.30;;;;;;5049104;28;19979;-71
2022/07/20 06:52:22;;;;;;;;;;;28.90;96.30;;;;;;5049217;28;19916;-71
2022/07/20 06:54:47;;;;;;;;;;;29.10;95.90;;;;;;5051359;28;19916;-71
2022/07/20 06:57:14;;;;;;;;;;;29.10;95.90;;;;;;5051520;28;20268;-72
2022/07/20 06:59:39;;;;;;;;;;;29.10;95.80;;;;;;5051644;28;20283;-72
2022/07/20 07:02:05;;;;;;;;;;;29.20;95.80;;;;;;5051279;28;19909;-72
2022/07/20 07:04:31;;;;;;;;;;;29.40;95.50;;;;;;5050708;28;20356;-73
2022/07/20 07:06:58;;;;;;;;;;;29.50;95.60;;;;;;5050884;28;19963;-71
2022/07/20 07:09:24;;;;;;;;;;;29.60;95.60;;;;;;5050655;28;19917;-71
2022/07/20 07:11:49;;;;;;;;;;;29.70;95.60;;;;;;5050921;28;19908;-71
2022/07/20 07:14:15;;;;;;;;;;;29.70;95.10;;;;;;5050244;28;20291;-72
2022/07/20 07:16:41;;;;;;;;;;;29.80;94.60;;;;;;5050417;28;19972;-72
2022/07/20 07:19:06;;;;;;;;;;;29.90;94.60;;;;;;5050511;28;19909;-71
2022/07/20 07:21:32;;;;;;;;;;;30.00;94.40;;;;;;5050499;28;20325;-71
2022/07/20 07:23:58;;;;;;;;;;;30.00;94.40;;;;;;5050483;28;20007;-72
2022/07/20 07:26:24;;;;;;;;;;;30.20;94.10;;;;;;5050442;28;20003;-72
2022/07/20 07:28:50;;;;;;;;;;;30.10;94.10;;;;;;5050528;28;19955;-71
2022/07/20 07:31:17;;;;;;;;;;;30.10;94.00;;;;;;5050778;28;20426;-73
2022/07/20 07:33:43;;;;;;;;;;;30.20;93.50;;;;;;5049250;28;19912;-73
2022/07/20 07:36:09;;;;;;;;;;;30.20;93.10;;;;;;5050525;28;19920;-72
2022/07/20 07:38:35;;;;;;;;;;;30.20;93.00;;;;;;5050346;28;19909;-72
2022/07/20 07:41:00;;;;;;;;;;;30.20;92.80;;;;;;5050498;28;20395;-72
2022/07/20 07:43:26;;;;;;;;;;;30.20;92.80;;;;;;5050403;28;19963;-72
2022/07/20 07:45:51;;;;;;;;;;;30.30;92.30;;;;;;5050521;28;19909;-71
2022/07/20 07:48:17;;;;;;;;;;;30.40;92.30;;;;;;5050733;28;20360;-71
2022/07/20 07:50:43;;;;;;;;;;;30.30;92.00;;;;;;5050328;28;19912;-72
2022/07/20 07:53:09;;;;;;;;;;;30.40;91.90;;;;;;5051816;28;19939;-72
2022/07/20 07:55:35;;;;;;;;;;;30.50;91.90;;;;;;5052109;28;19912;-74
2022/07/20 07:58:01;;;;;;;;;;;30.40;92.20;;;;;;5055135;28;19924;-74
2022/07/20 08:00:26;;;;;;;;;;;30.50;91.70;;;;;;5055322;28;19908;-72
2022/07/20 08:02:53;;;;;;;;;;;30.60;91.50;;;;;;5054541;28;19909;-72
2022/07/20 08:05:19;;;;;;;;;;;30.60;91.80;;;;;;5054230;28;20766;-72
2022/07/20 08:07:44;;;;;;;;;;;30.60;91.00;;;;;;5054559;28;20027;-71
2022/07/20 08:10:10;;;;;;;;;;;30.70;91.20;;;;;;5054019;28;20027;-72
2022/07/20 08:12:36;;;;;;;;;;;30.80;91.30;;;;;;5052723;28;19908;-71
2022/07/20 08:15:04;;;;;;;;;;;30.90;90.90;;;;;;5054046;28;19927;-73
2022/07/20 08:17:29;;;;;;;;;;;30.90;91.30;;;;;;5054005;28;19932;-73
2022/07/20 08:19:55;;;;;;;;;;;31.00;91.10;;;;;;5053833;28;20367;-71
2022/07/20 08:22:21;;;;;;;;;;;31.10;90.70;;;;;;5053669;28;19908;-71
2022/07/20 08:24:46;;;;;;;;;;;31.10;91.00;;;;;;5053333;28;19917;-72
2022/07/20 08:27:12;;;;;;;;;;;31.10;90.70;;;;;;5054402;28;19955;-72
2022/07/20 08:29:37;;;;;;;;;;;31.20;90.30;;;;;;5054251;28;20233;-73
2022/07/20 08:32:03;;;;;;;;;;;31.30;90.20;;;;;;5056899;28;19916;-72
2022/07/20 08:34:29;;;;;;;;;;;31.30;90.00;;;;;;5053597;28;19917;-72
2022/07/20 08:36:54;;;;;;;;;;;31.50;88.70;;;;;;5053977;28;20027;-73
2022/07/20 08:39:20;;;;;;;;;;;31.60;88.10;;;;;;5053697;28;20303;-73
2022/07/20 08:41:46;;;;;;;;;;;31.30;88.00;;;;;;5052263;28;19955;-73
2022/07/20 08:44:11;;;;;;;;;;;31.30;88.30;;;;;;5053453;28;19908;-71
2022/07/20 08:46:37;;;;;;;;;;;31.30;87.80;;;;;;5053314;28;19957;-72
2022/07/20 08:49:03;;;;;;;;;;;31.30;87.50;;;;;;5053558;28;19908;-72
2022/07/20 08:51:29;;;;;;;;;;;31.40;88.30;;;;;;5054117;28;19912;-71
2022/07/20 08:53:56;;;;;;;;;;;31.40;87.60;;;;;;5053567;28;19923;-71
2022/07/20 08:56:22;;;;;;;;;;;31.40;87.40;;;;;;5052223;28;19908;-72
2022/07/20 08:58:47;;;;;;;;;;;31.50;87.60;;;;;;5052947;28;19917;-72
2022/07/20 09:01:16;;;;;;;;;;;31.70;87.10;;;;;;5052926;28;19912;-72
2022/07/20 09:03:44;;;;;;;;;;;31.80;86.30;;;;;;5052750;28;19916;-72
2022/07/20 09:06:10;;;;;;;;;;;32.00;82.90;;;;;;5052494;28;19909;-71
2022/07/20 09:08:37;;;;;;;;;;;32.00;84.20;;;;;;5052582;28;20058;-71
2022/07/20 09:11:03;;;;;;;;;;;32.00;85.10;;;;;;5068174;28;20299;-72
2022/07/20 09:13:29;;;;;;;;;;;32.10;85.30;;;;;;5052656;28;19919;-72
2022/07/20 09:15:56;;;;;;;;;;;32.20;84.60;;;;;;5052124;28;19916;-72
2022/07/20 09:18:22;;;;;;;;;;;32.30;84.90;;;;;;5052527;28;19962;-70
2022/07/20 09:20:48;;;;;;;;;;;32.50;82.90;;;;;;5052703;28;19916;-71
2022/07/20 09:23:20;;;;;;;;;;;32.60;83.40;;;;;;5052331;28;20495;-71
2022/07/20 09:26:05;;;;;;;;;;;32.70;82.90;;;;;;5051374;28;19909;-72
2022/07/20 09:28:38;;;;;;;;;;;32.80;81.80;;;;;;5052857;28;20007;-72
2022/07/20 09:31:10;;;;;;;;;;;32.80;81.40;;;;;;5052525;28;19909;-72
2022/07/20 09:33:36;;;;;;;;;;;32.70;89.90;;;;;;5052554;28;19916;-72
2022/07/20 09:36:03;;;;;;;;;;;32.40;92.10;;;;;;5052683;28;19909;-72
2022/07/20 09:38:39;;;;;;;;;;;32.20;95.60;;;;;;5052292;28;19913;-72
2022/07/20 09:41:07;;;;;;;;;;;31.90;95.70;;;;;;5052646;28;20379;-73
2022/07/20 09:43:34;;;;;;;;;;;31.80;98.70;;;;;;5052877;28;19908;-73
2022/07/20 09:46:13;;;;;;;;;;;31.80;99.90;;;;;;5052730;28;19909;-72
2022/07/20 09:48:40;;;;;;;;;;;31.70;97.10;;;;;;5052971;28;19909;-71
2022/07/20 09:51:15;;;;;;;;;;;31.70;93.00;;;;;;5052095;28;20348;-71
2022/07/20 09:53:41;;;;;;;;;;;31.60;94.10;;;;;;5051685;28;19909;-72
2022/07/20 09:56:07;;;;;;;;;;;31.60;96.10;;;;;;5051530;28;19984;-72
2022/07/20 09:58:34;;;;;;;;;;;31.60;95.70;;;;;;5051816;28;19915;-71
2022/07/20 10:01:00;;;;;;;;;;;31.40;97.70;;;;;;5051660;28;19908;-72
2022/07/20 10:03:27;;;;;;;;;;;31.40;98.80;;;;;;5052087;28;19939;-72
2022/07/20 10:05:52;;;;;;;;;;;31.30;98.80;;;;;;5052126;28;19908;-72
2022/07/20 10:08:18;;;;;;;;;;;31.40;99.60;;;;;;5051954;28;19962;-71
2022/07/20 10:10:44;;;;;;;;;;;31.50;98.70;;;;;;5051956;28;19932;-71
2022/07/20 10:13:10;;;;;;;;;;;31.50;98.70;;;;;;5053751;28;19961;-72
2022/07/20 10:15:40;;;;;;;;;;;31.40;98.60;;;;;;5050171;28;19917;-72
2022/07/20 10:18:07;;;;;;;;;;;31.40;99.90;;;;;;5051380;28;20403;-72
2022/07/20 10:20:34;;;;;;;;;;;31.40;99.30;;;;;;5049360;28;19958;-71
2022/07/20 10:23:15;;;;;;;;;;;31.20;97.40;;;;;;5051379;28;19923;-73
2022/07/20 10:25:44;;;;;;;;;;;31.10;95.90;;;;;;5051347;28;20024;-71
2022/07/20 10:28:28;;;;;;;;;;;31.10;94.90;;;;;;5051983;28;20282;-73
2022/07/20 10:30:55;;;;;;;;;;;31.20;95.60;;;;;;5051433;28;19908;-71
2022/07/20 10:33:21;;;;;;;;;;;31.20;95.30;;;;;;5052095;28;20427;-72
2022/07/20 10:35:48;;;;;;;;;;;31.40;95.00;;;;;;5051367;28;20271;-72
2022/07/20 10:38:20;;;;;;;;;;;31.40;95.30;;;;;;5051692;28;19909;-73
2022/07/20 10:44:05;;;;;;;;;;;31.30;93.30;;;;;;5051616;28;19982;-72
2022/07/20 10:46:32;;;;;;;;;;;31.40;95.20;;;;;;5050783;28;19909;-71
2022/07/20 10:48:57;;;;;;;;;;;31.40;93.40;;;;;;5051409;28;19923;-72
2022/07/20 10:51:23;;;;;;;;;;;31.20;94.30;;;;;;5051351;28;20007;-71
2022/07/20 10:53:48;;;;;;;;;;;31.20;95.10;;;;;;5050839;28;19913;-71
2022/07/20 10:56:14;;;;;;;;;;;31.00;95.60;;;;;;5050842;28;19909;-74
2022/07/20 10:58:42;;;;;;;;;;;30.80;94.80;;;;;;5052958;28;20011;-73
2022/07/20 11:01:08;;;;;;;;;;;30.80;95.40;;;;;;5051020;28;19909;-72
2022/07/20 11:03:38;;;;;;;;;;;30.90;94.70;;;;;;5051328;28;19909;-71
2022/07/20 11:06:12;;;;;;;;;;;31.00;97.30;;;;;;5050833;28;19909;-72
2022/07/20 11:08:39;;;;;;;;;;;31.10;99.20;;;;;;5050703;28;20382;-72
2022/07/20 11:11:07;;;;;;;;;;;31.10;99.90;;;;;;5051219;28;20003;-71
2022/07/20 11:13:33;;;;;;;;;;;31.00;99.90;;;;;;5050534;28;19916;-71
2022/07/20 11:16:01;;;;;;;;;;;30.70;99.90;;;;;;5050881;28;19916;-72
2022/07/20 11:18:28;;;;;;;;;;;30.70;99.90;;;;;;5051856;28;19909;-72
2022/07/20 11:20:53;;;;;;;;;;;30.80;99.40;;;;;;5050677;28;19913;-72
2022/07/20 11:23:20;;;;;;;;;;;30.70;99.90;;;;;;5050900;28;20390;-72
2022/07/20 11:25:53;;;;;;;;;;;30.50;99.90;;;;;;5050966;28;19915;-72
2022/07/20 11:28:20;;;;;;;;;;;30.50;99.90;;;;;;5051596;28;19919;-71
2022/07/20 11:30:46;;;;;;;;;;;30.40;99.90;;;;;;5053234;28;20015;-71
2022/07/20 11:33:12;;;;;;;;;;;30.40;99.90;;;;;;5055074;28;20345;-72
2022/07/20 11:35:38;;;;;;;;;;;30.40;99.90;;;;;;5054604;28;20012;-72
2022/07/20 11:38:03;;;;;;;;;;;30.20;99.90;;;;;;5055285;28;19916;-72
2022/07/20 11:40:29;;;;;;;;;;;30.40;99.90;;;;;;5055329;28;19909;-71
2022/07/20 11:43:16;;;;;;;;;;;30.60;99.90;;;;;;5056015;28;19913;-72
2022/07/20 11:45:41;;;;;;;;;;;30.60;99.90;;;;;;5059989;28;19940;-72
2022/07/20 11:48:20;;;;;;;;;;;30.70;99.90;;;;;;5061345;28;19909;-72
2022/07/20 11:50:46;;;;;;;;;;;31.00;99.80;;;;;;5058233;28;19915;-72
2022/07/20 11:53:25;;;;;;;;;;;30.90;95.10;;;;;;5062133;28;19952;-72
2022/07/20 11:55:50;;;;;;;;;;;30.90;98.30;;;;;;5062715;28;19944;-71
2022/07/20 11:58:22;;;;;;;;;;;30.90;99.90;;;;;;5057631;28;20433;-72
2022/07/20 12:00:48;;;;;;;;;;;30.80;99.90;;;;;;5054690;28;19971;-72
2022/07/20 12:03:14;;;;;;;;;;;30.80;99.90;;;;;;5053471;28;19909;-71
2022/07/20 12:05:39;;;;;;;;;;;30.70;99.90;;;;;;5054763;28;19916;-70
2022/07/20 12:08:12;;;;;;;;;;;30.60;99.90;;;;;;5054642;28;19909;-72
2022/07/20 12:10:40;;;;;;;;;;;30.70;99.90;;;;;;5054503;28;19931;-71
2022/07/20 12:13:07;;;;;;;;;;;30.80;99.90;;;;;;5054880;28;19996;-72
2022/07/20 12:15:32;;;;;;;;;;;30.80;99.90;;;;;;5052814;28;19967;-72
2022/07/20 12:17:58;;;;;;;;;;;30.70;99.90;;;;;;5055212;28;19917;-72
2022/07/20 12:20:24;;;;;;;;;;;30.80;99.90;;;;;;5055337;28;20008;-71
2022/07/20 12:22:55;;;;;;;;;;;30.80;99.90;;;;;;5054563;28;20121;-72
2022/07/20 12:25:22;;;;;;;;;;;30.70;99.90;;;;;;5054281;28;19952;-73
2022/07/20 12:27:48;;;;;;;;;;;30.70;99.90;;;;;;5054348;28;19909;-72
2022/07/20 12:30:23;;;;;;;;;;;30.80;99.90;;;;;;5054220;28;19978;-73
2022/07/20 12:33:01;;;;;;;;;;;30.80;99.90;;;;;;5053902;28;19913;-72
2022/07/20 12:35:27;;;;;;;;;;;30.80;99.90;;;;;;5052626;28;19912;-73
2022/07/20 12:37:54;;;;;;;;;;;30.90;99.90;;;;;;5054122;28;19919;-73
2022/07/20 12:40:34;;;;;;;;;;;30.90;99.90;;;;;;5054331;28;19912;-73
2022/07/20 12:43:00;;;;;;;;;;;30.80;97.80;;;;;;5053800;28;19913;-72
2022/07/20 12:45:26;;;;;;;;;;;30.60;97.60;;;;;;5054172;28;19908;-71
2022/07/20 12:47:52;;;;;;;;;;;30.90;97.90;;;;;;5054741;28;19915;-72
2022/07/20 12:50:17;;;;;;;;;;;30.90;97.90;;;;;;5054525;28;20124;-72
2022/07/20 12:52:43;;;;;;;;;;;30.80;97.10;;;;;;5056547;28;19944;-72
2022/07/20 12:55:09;;;;;;;;;;;30.80;99.10;;;;;;5054160;28;20018;-72
2022/07/20 12:57:34;;;;;;;;;;;30.60;99.20;;;;;;5054110;28;19923;-71
2022/07/20 13:00:00;;;;;;;;;;;30.60;99.90;;;;;;5053961;28;19954;-72
2022/07/20 13:02:25;;;;;;;;;;;30.50;99.90;;;;;;5054110;28;19931;-72
2022/07/20 13:04:51;;;;;;;;;;;30.80;99.90;;;;;;5053530;28;19912;-72
2022/07/20 13:07:16;;;;;;;;;;;30.70;99.90;;;;;;5053547;28;19909;-72
2022/07/20 13:09:42;;;;;;;;;;;30.60;99.60;;;;;;5053851;28;19948;-72
2022/07/20 13:12:08;;;;;;;;;;;30.70;99.90;;;;;;5053629;28;19920;-71
2022/07/20 13:14:33;;;;;;;;;;;30.70;99.90;;;;;;5053060;28;19920;-71
2022/07/20 13:16:59;;;;;;;;;;;30.60;99.90;;;;;;5053033;28;20261;-72
2022/07/20 13:19:25;;;;;;;;;;;30.60;99.90;;;;;;5053467;28;19970;-71
2022/07/20 13:21:51;;;;;;;;;;;30.50;99.90;;;;;;5053589;28;19909;-72
2022/07/20 13:24:16;;;;;;;;;;;30.60;99.90;;;;;;5053168;28;19917;-72
2022/07/20 13:26:44;;;;;;;;;;;30.50;99.90;;;;;;5053136;28;19916;-72
2022/07/20 13:29:10;;;;;;;;;;;30.50;99.90;;;;;;5053365;28;19915;-73
2022/07/20 13:31:36;;;;;;;;;;;30.40;99.90;;;;;;5052039;28;19909;-73
2022/07/20 13:34:02;;;;;;;;;;;30.30;99.90;;;;;;5053412;28;19940;-72
2022/07/20 13:36:28;;;;;;;;;;;30.50;99.90;;;;;;5052977;28;19908;-72
2022/07/20 13:38:53;;;;;;;;;;;30.60;99.90;;;;;;5053408;28;19909;-72
2022/07/20 13:41:20;;;;;;;;;;;30.80;99.90;;;;;;5053352;28;19909;-72
2022/07/20 13:43:46;;;;;;;;;;;30.80;99.90;;;;;;5053483;28;19916;-72
2022/07/20 13:46:11;;;;;;;;;;;30.80;99.90;;;;;;5052801;28;19909;-72
2022/07/20 13:48:40;;;;;;;;;;;30.70;99.90;;;;;;5053039;28;19963;-72
2022/07/20 13:51:06;;;;;;;;;;;30.70;99.90;;;;;;5053189;28;20398;-72
2022/07/20 13:53:32;;;;;;;;;;;30.50;99.90;;;;;;5052821;28;19960;-72
2022/07/20 13:55:57;;;;;;;;;;;30.50;99.90;;;;;;5052518;28;19913;-72
2022/07/20 13:58:23;;;;;;;;;;;30.50;99.90;;;;;;5052194;28;19916;-72
2022/07/20 14:00:49;;;;;;;;;;;30.40;99.90;;;;;;5053282;28;19912;-73
2022/07/20 14:03:15;;;;;;;;;;;30.40;99.90;;;;;;5052757;28;19908;-72
2022/07/20 14:05:41;;;;;;;;;;;30.50;99.90;;;;;;5052566;28;19939;-73
2022/07/20 14:08:07;;;;;;;;;;;30.50;99.90;;;;;;5053060;28;19909;-73
2022/07/20 14:10:33;;;;;;;;;;;30.30;99.90;;;;;;5053013;28;19909;-72
2022/07/20 14:12:58;;;;;;;;;;;30.40;99.90;;;;;;5052601;28;20403;-72
2022/07/20 14:15:24;;;;;;;;;;;30.50;99.20;;;;;;5052752;28;19966;-74
2022/07/20 14:17:49;;;;;;;;;;;30.60;99.90;;;;;;5053127;28;20573;-73